sensor_id;sensor_type;location;lat;lon;timestamp;pressure;altitude;pressure_sealevel;temperature;humidity
4133;BME280;2080;51.038;7.008;2023-05-07T00:00:39;75228.94;;;-142.53;100.00
4133;BME280;2080;51.038;7.008;2023-05-07T00:03:05;75223.13;;;-142.53;100.00
4133;BME280;2080;51.038;7.008;2023-05-07T00:05:34;75225.06;;;-142.53;100.00
4133;BME280;2080;51.038;7.008;2023-05-07T00:07:59;75234.78;;;-142.53;100.00
4133;BME280;2080;51.038;7.008;2023-05-07T00:10:29;75228.94;;;-142.53;100.00
4133;BME280;2080;51.038;7.008;2023-05-07T00:12:57;75217.31;;;-142.53;100.00
4133;BME280;2080;51.038;7.008;2023-05-07T00:15:22;75228.94;;;-142.53;100.00
4133;BME280;2080;51.038;7.008;2023-05-07T00:17:48;75227.00;;;-142.53;100.00
4133;BME280;2080;51.038;7.008;2023-05-07T00:20:13;75221.19;;;-142.53;100.00
4133;BME280;2080;51.038;7.008;2023-05-07T00:22:41;75217.31;;;-142.53;100.00
4133;BME280;2080;51.038;7.008;2023-05-07T00:25:08;75201.75;;;-142.53;100.00
4133;BME280;2080;51.038;7.008;2023-05-07T00:27:35;75213.41;;;-142.53;100.00
4133;BME280;2080;51.038;7.008;2023-05-07T00:30:00;75205.66;;;-142.53;100.00
4133;BME280;2080;51.038;7.008;2023-05-07T00:32:25;75194.00;;;-142.53;100.00
4133;BME280;2080;51.038;7.008;2023-05-07T00:34:53;75194.00;;;-142.53;100.00
4133;BME280;2080;51.038;7.008;2023-05-07T00:37:21;75184.28;;;-142.53;100.00
4133;BME280;2080;51.038;7.008;2023-05-07T00:39:46;75201.75;;;-142.53;100.00
4133;BME280;2080;51.038;7.008;2023-05-07T00:42:12;75209.53;;;-142.53;100.00
4133;BME280;2080;51.038;7.008;2023-05-07T00:44:39;75205.66;;;-142.53;100.00
4133;BME280;2080;51.038;7.008;2023-05-07T00:47:13;75205.66;;;-142.53;100.00
4133;BME280;2080;51.038;7.008;2023-05-07T00:49:43;75188.19;;;-142.53;100.00
4133;BME280;2080;51.038;7.008;2023-05-07T00:52:14;75190.13;;;-142.53;100.00
4133;BME280;2080;51.038;7.008;2023-05-07T00:54:41;75194.00;;;-142.53;100.00
4133;BME280;2080;51.038;7.008;2023-05-07T00:57:10;75194.00;;;-142.53;100.00
4133;BME280;2080;51.038;7.008;2023-05-07T00:59:38;75188.19;;;-142.53;100.00
4133;BME280;2080;51.038;7.008;2023-05-07T01:02:04;75197.88;;;-142.53;100.00
4133;BME280;2080;51.038;7.008;2023-05-07T01:04:30;75197.88;;;-142.53;100.00
4133;BME280;2080;51.038;7.008;2023-05-07T01:06:58;75201.75;;;-142.53;100.00
4133;BME280;2080;51.038;7.008;2023-05-07T01:09:28;75209.53;;;-142.53;100.00
4133;BME280;2080;51.038;7.008;2023-05-07T01:11:57;75217.31;;;-142.53;100.00
4133;BME280;2080;51.038;7.008;2023-05-07T01:14:23;75215.34;;;-142.53;100.00
4133;BME280;2080;51.038;7.008;2023-05-07T01:16:52;75213.41;;;-142.53;100.00
4133;BME280;2080;51.038;7.008;2023-05-07T01:19:18;75227.00;;;-142.53;100.00
4133;BME280;2080;51.038;7.008;2023-05-07T01:21:46;75228.94;;;-142.53;100.00
4133;BME280;2080;51.038;7.008;2023-05-07T01:24:19;75213.41;;;-142.53;100.00
4133;BME280;2080;51.038;7.008;2023-05-07T01:26:49;75217.31;;;-142.53;100.00
4133;BME280;2080;51.038;7.008;2023-05-07T01:29:19;75209.53;;;-142.53;100.00
4133;BME280;2080;51.038;7.008;2023-05-07T01:31:46;75213.41;;;-142.53;100.00
4133;BME280;2080;51.038;7.008;2023-05-07T01:34:13;75230.88;;;-142.53;100.00
4133;BME280;2080;51.038;7.008;2023-05-07T01:36:42;75232.84;;;-142.53;100.00
4133;BME280;2080;51.038;7.008;2023-05-07T01:39:10;75240.59;;;-142.53;100.00
4133;BME280;2080;51.038;7.008;2023-05-07T01:41:37;75246.44;;;-142.53;100.00
4133;BME280;2080;51.038;7.008;2023-05-07T01:44:03;75248.38;;;-142.53;100.00
4133;BME280;2080;51.038;7.008;2023-05-07T01:46:29;75252.25;;;-142.53;100.00
4133;BME280;2080;51.038;7.008;2023-05-07T01:48:56;75256.13;;;-142.53;100.00
4133;BME280;2080;51.038;7.008;2023-05-07T01:51:21;75252.25;;;-142.53;100.00
4133;BME280;2080;51.038;7.008;2023-05-07T01:53:52;75261.97;;;-142.53;100.00
4133;BME280;2080;51.038;7.008;2023-05-07T01:56:18;75261.97;;;-142.53;100.00
4133;BME280;2080;51.038;7.008;2023-05-07T01:58:44;75263.91;;;-142.53;100.00
4133;BME280;2080;51.038;7.008;2023-05-07T02:01:13;75263.91;;;-142.53;100.00
4133;BME280;2080;51.038;7.008;2023-05-07T02:03:42;75267.78;;;-142.53;100.00
4133;BME280;2080;51.038;7.008;2023-05-07T02:06:07;75277.50;;;-142.53;100.00
4133;BME280;2080;51.038;7.008;2023-05-07T02:08:35;75275.56;;;-142.53;100.00
4133;BME280;2080;51.038;7.008;2023-05-07T02:11:00;75275.56;;;-142.53;100.00
4133;BME280;2080;51.038;7.008;2023-05-07T02:13:31;75267.78;;;-142.53;100.00
4133;BME280;2080;51.038;7.008;2023-05-07T02:15:57;75271.66;;;-142.53;100.00
4133;BME280;2080;51.038;7.008;2023-05-07T02:18:25;75275.56;;;-142.53;100.00
4133;BME280;2080;51.038;7.008;2023-05-07T02:20:53;75294.97;;;-142.53;100.00
4133;BME280;2080;51.038;7.008;2023-05-07T02:23:18;75304.69;;;-142.53;100.00
4133;BME280;2080;51.038;7.008;2023-05-07T02:25:46;75314.38;;;-142.53;100.00
4133;BME280;2080;51.038;7.008;2023-05-07T02:28:11;75326.03;;;-142.53;100.00
4133;BME280;2080;51.038;7.008;2023-05-07T02:30:37;75333.81;;;-142.53;100.00
4133;BME280;2080;51.038;7.008;2023-05-07T02:33:03;75339.63;;;-142.53;100.00
4133;BME280;2080;51.038;7.008;2023-05-07T02:35:28;75337.69;;;-142.53;100.00
4133;BME280;2080;51.038;7.008;2023-05-07T02:38:01;75337.69;;;-142.53;100.00
4133;BME280;2080;51.038;7.008;2023-05-07T02:40:26;75349.34;;;-142.53;100.00
4133;BME280;2080;51.038;7.008;2023-05-07T02:42:52;75361.00;;;-142.53;100.00
4133;BME280;2080;51.038;7.008;2023-05-07T02:45:17;75378.47;;;-142.53;100.00
4133;BME280;2080;51.038;7.008;2023-05-07T02:47:42;75392.06;;;-142.53;100.00
4133;BME280;2080;51.038;7.008;2023-05-07T02:50:08;75405.66;;;-142.53;100.00
4133;BME280;2080;51.038;7.008;2023-05-07T02:52:33;75403.72;;;-142.53;100.00
4133;BME280;2080;51.038;7.008;2023-05-07T02:54:58;75403.72;;;-142.53;100.00
4133;BME280;2080;51.038;7.008;2023-05-07T02:57:24;75407.59;;;-142.53;100.00
4133;BME280;2080;51.038;7.008;2023-05-07T02:59:52;75415.34;;;-142.53;100.00
4133;BME280;2080;51.038;7.008;2023-05-07T03:02:18;75411.47;;;-142.53;100.00
4133;BME280;2080;51.038;7.008;2023-05-07T03:04:43;75417.28;;;-142.53;100.00
4133;BME280;2080;51.038;7.008;2023-05-07T03:07:13;75399.81;;;-142.53;100.00
4133;BME280;2080;51.038;7.008;2023-05-07T03:09:39;75415.34;;;-142.53;100.00
4133;BME280;2080;51.038;7.008;2023-05-07T03:12:08;75423.13;;;-142.53;100.00
4133;BME280;2080;51.038;7.008;2023-05-07T03:14:35;75427.00;;;-142.53;100.00
4133;BME280;2080;51.038;7.008;2023-05-07T03:17:01;75442.53;;;-142.53;100.00
4133;BME280;2080;51.038;7.008;2023-05-07T03:19:26;75442.53;;;-142.53;100.00
4133;BME280;2080;51.038;7.008;2023-05-07T03:21:51;75452.25;;;-142.53;100.00
4133;BME280;2080;51.038;7.008;2023-05-07T03:24:17;75438.66;;;-142.53;100.00
4133;BME280;2080;51.038;7.008;2023-05-07T03:26:45;75438.66;;;-142.53;100.00
4133;BME280;2080;51.038;7.008;2023-05-07T03:29:10;75417.28;;;-142.53;100.00
4133;BME280;2080;51.038;7.008;2023-05-07T03:31:38;75419.25;;;-142.53;100.00
4133;BME280;2080;51.038;7.008;2023-05-07T03:34:04;75423.13;;;-142.53;100.00
4133;BME280;2080;51.038;7.008;2023-05-07T03:36:29;75427.00;;;-142.53;100.00
4133;BME280;2080;51.038;7.008;2023-05-07T03:38:58;75415.34;;;-142.53;100.00
4133;BME280;2080;51.038;7.008;2023-05-07T03:41:23;75419.25;;;-142.53;100.00
4133;BME280;2080;51.038;7.008;2023-05-07T03:43:48;75415.34;;;-142.53;100.00
4133;BME280;2080;51.038;7.008;2023-05-07T03:46:20;75434.78;;;-142.53;100.00
4133;BME280;2080;51.038;7.008;2023-05-07T03:48:45;75438.66;;;-142.53;100.00
4133;BME280;2080;51.038;7.008;2023-05-07T03:51:10;75444.47;;;-142.53;100.00
4133;BME280;2080;51.038;7.008;2023-05-07T03:53:38;75450.31;;;-142.53;100.00
4133;BME280;2080;51.038;7.008;2023-05-07T03:56:06;75438.66;;;-142.53;100.00
4133;BME280;2080;51.038;7.008;2023-05-07T03:58:31;75438.66;;;-142.53;100.00
4133;BME280;2080;51.038;7.008;2023-05-07T04:00:59;75430.88;;;-142.53;100.00
4133;BME280;2080;51.038;7.008;2023-05-07T04:03:24;75434.78;;;-142.53;100.00
4133;BME280;2080;51.038;7.008;2023-05-07T04:05:52;75452.25;;;-142.53;100.00
4133;BME280;2080;51.038;7.008;2023-05-07T04:08:19;75485.25;;;-142.53;100.00
4133;BME280;2080;51.038;7.008;2023-05-07T04:10:49;75481.38;;;-142.53;100.00
4133;BME280;2080;51.038;7.008;2023-05-07T04:13:19;75473.59;;;-142.53;100.00
4133;BME280;2080;51.038;7.008;2023-05-07T04:15:44;75463.91;;;-142.53;100.00
4133;BME280;2080;51.038;7.008;2023-05-07T04:18:11;75461.97;;;-142.53;100.00
4133;BME280;2080;51.038;7.008;2023-05-07T04:20:36;75460.00;;;-142.53;100.00
4133;BME280;2080;51.038;7.008;2023-05-07T04:23:04;75444.47;;;-142.53;100.00
4133;BME280;2080;51.038;7.008;2023-05-07T04:25:32;75434.78;;;-142.53;100.00
4133;BME280;2080;51.038;7.008;2023-05-07T04:27:58;75403.72;;;-142.53;100.00
4133;BME280;2080;51.038;7.008;2023-05-07T04:30:25;75397.88;;;-142.53;100.00
4133;BME280;2080;51.038;7.008;2023-05-07T04:32:53;75388.16;;;-142.53;100.00
4133;BME280;2080;51.038;7.008;2023-05-07T04:35:19;75376.53;;;-142.53;100.00
4133;BME280;2080;51.038;7.008;2023-05-07T04:37:47;75361.00;;;-142.53;100.00
4133;BME280;2080;51.038;7.008;2023-05-07T04:40:15;75339.63;;;-142.53;100.00
4133;BME280;2080;51.038;7.008;2023-05-07T04:42:41;75329.91;;;-142.53;100.00
4133;BME280;2080;51.038;7.008;2023-05-07T04:45:09;75326.03;;;-142.53;100.00
4133;BME280;2080;51.038;7.008;2023-05-07T04:47:35;75318.28;;;-142.53;100.00
4133;BME280;2080;51.038;7.008;2023-05-07T04:50:03;75308.56;;;-142.53;100.00
4133;BME280;2080;51.038;7.008;2023-05-07T04:52:31;75302.72;;;-142.53;100.00
4133;BME280;2080;51.038;7.008;2023-05-07T04:54:59;75281.38;;;-142.53;100.00
4133;BME280;2080;51.038;7.008;2023-05-07T04:57:27;75275.56;;;-142.53;100.00
4133;BME280;2080;51.038;7.008;2023-05-07T04:59:55;75260.00;;;-142.53;100.00
4133;BME280;2080;51.038;7.008;2023-05-07T05:02:20;75254.19;;;-142.53;100.00
4133;BME280;2080;51.038;7.008;2023-05-07T05:04:46;75248.38;;;-142.53;100.00
4133;BME280;2080;51.038;7.008;2023-05-07T05:07:11;75228.94;;;-142.53;100.00
4133;BME280;2080;51.038;7.008;2023-05-07T05:09:36;75221.19;;;-142.53;100.00
4133;BME280;2080;51.038;7.008;2023-05-07T05:12:04;75207.59;;;-142.53;100.00
4133;BME280;2080;51.038;7.008;2023-05-07T05:14:32;75194.00;;;-142.53;100.00
4133;BME280;2080;51.038;7.008;2023-05-07T05:16:57;75186.22;;;-142.53;100.00
4133;BME280;2080;51.038;7.008;2023-05-07T05:19:25;75162.94;;;-142.53;100.00
4133;BME280;2080;51.038;7.008;2023-05-07T05:21:50;75139.63;;;-142.53;100.00
4133;BME280;2080;51.038;7.008;2023-05-07T05:24:16;75112.44;;;-142.53;99.23
4133;BME280;2080;51.038;7.008;2023-05-07T05:26:41;75100.81;;;-142.53;98.09
4133;BME280;2080;51.038;7.008;2023-05-07T05:29:08;75093.03;;;-142.53;96.55
4133;BME280;2080;51.038;7.008;2023-05-07T05:31:36;75085.28;;;-142.53;95.24
4133;BME280;2080;51.038;7.008;2023-05-07T05:34:04;75069.75;;;-142.53;95.04
4133;BME280;2080;51.038;7.008;2023-05-07T05:36:32;75058.09;;;-142.53;93.92
4133;BME280;2080;51.038;7.008;2023-05-07T05:38:57;75077.50;;;-142.53;93.44
4133;BME280;2080;51.038;7.008;2023-05-07T05:41:23;75085.28;;;-142.53;93.21
4133;BME280;2080;51.038;7.008;2023-05-07T05:43:48;75087.22;;;-142.53;92.24
4133;BME280;2080;51.038;7.008;2023-05-07T05:46:14;75073.63;;;-142.53;91.85
4133;BME280;2080;51.038;7.008;2023-05-07T05:48:42;75056.16;;;-142.53;90.71
4133;BME280;2080;51.038;7.008;2023-05-07T05:51:07;75073.63;;;-142.53;90.25
4133;BME280;2080;51.038;7.008;2023-05-07T05:53:37;75046.44;;;-142.53;89.07
4133;BME280;2080;51.038;7.008;2023-05-07T05:56:06;75042.56;;;-142.53;89.48
4133;BME280;2080;51.038;7.008;2023-05-07T05:58:31;75046.44;;;-142.53;88.42
4133;BME280;2080;51.038;7.008;2023-05-07T06:00:59;75034.78;;;-142.53;88.62
4133;BME280;2080;51.038;7.008;2023-05-07T06:03:25;75007.59;;;-142.53;87.82
4133;BME280;2080;51.038;7.008;2023-05-07T06:05:53;74999.84;;;-142.53;87.29
4133;BME280;2080;51.038;7.008;2023-05-07T06:08:18;74988.19;;;-142.53;86.90
4133;BME280;2080;51.038;7.008;2023-05-07T06:10:46;74972.66;;;-142.53;86.29
4133;BME280;2080;51.038;7.008;2023-05-07T06:13:12;74964.88;;;-142.53;84.30
4133;BME280;2080;51.038;7.008;2023-05-07T06:15:37;74949.38;;;-142.53;83.99
4133;BME280;2080;51.038;7.008;2023-05-07T06:18:02;74922.19;;;-142.53;84.16
4133;BME280;2080;51.038;7.008;2023-05-07T06:20:28;74914.41;;;-142.53;83.97
4133;BME280;2080;51.038;7.008;2023-05-07T06:22:53;74922.19;;;-142.53;80.90
4133;BME280;2080;51.038;7.008;2023-05-07T06:25:19;74891.13;;;-142.53;81.65
4133;BME280;2080;51.038;7.008;2023-05-07T06:27:44;74865.88;;;-142.53;81.11
4133;BME280;2080;51.038;7.008;2023-05-07T06:30:10;74852.28;;;-142.53;79.85
4133;BME280;2080;51.038;7.008;2023-05-07T06:32:36;74832.88;;;-142.53;79.31
4133;BME280;2080;51.038;7.008;2023-05-07T06:35:01;74805.69;;;-142.53;79.18
4133;BME280;2080;51.038;7.008;2023-05-07T06:37:27;74774.63;;;-142.53;77.21
4133;BME280;2080;51.038;7.008;2023-05-07T06:39:52;74768.81;;;-142.53;75.69
4133;BME280;2080;51.038;7.008;2023-05-07T06:42:19;74739.69;;;-142.53;74.57
4133;BME280;2080;51.038;7.008;2023-05-07T06:44:45;74700.84;;;-142.53;72.69
4133;BME280;2080;51.038;7.008;2023-05-07T06:47:10;74673.69;;;-142.53;72.55
4133;BME280;2080;51.038;7.008;2023-05-07T06:49:38;74634.84;;;-142.53;72.63
4133;BME280;2080;51.038;7.008;2023-05-07T06:52:06;74611.56;;;-142.53;71.37
4133;BME280;2080;51.038;7.008;2023-05-07T06:54:31;74586.31;;;-142.53;69.65
4133;BME280;2080;51.038;7.008;2023-05-07T06:56:59;74572.72;;;-142.53;68.40
4133;BME280;2080;51.038;7.008;2023-05-07T06:59:24;74557.19;;;-142.53;68.18
4133;BME280;2080;51.038;7.008;2023-05-07T07:01:50;74549.44;;;-142.53;66.59
4133;BME280;2080;51.038;7.008;2023-05-07T07:04:15;74541.66;;;-142.53;67.16
4133;BME280;2080;51.038;7.008;2023-05-07T07:06:40;74506.72;;;-142.53;65.71
4133;BME280;2080;51.038;7.008;2023-05-07T07:09:08;74526.13;;;-142.53;65.24
4133;BME280;2080;51.038;7.008;2023-05-07T07:11:36;74522.25;;;-142.53;63.66
4133;BME280;2080;51.038;7.008;2023-05-07T07:14:01;74495.06;;;-142.53;65.20
4133;BME280;2080;51.038;7.008;2023-05-07T07:16:27;74483.44;;;-142.53;65.85
4133;BME280;2080;51.038;7.008;2023-05-07T07:18:54;74456.25;;;-142.53;65.27
4133;BME280;2080;51.038;7.008;2023-05-07T07:21:20;74421.31;;;-142.53;65.01
4133;BME280;2080;51.038;7.008;2023-05-07T07:23:48;74396.06;;;-142.53;63.16
4133;BME280;2080;51.038;7.008;2023-05-07T07:26:15;74386.38;;;-142.53;61.92
4133;BME280;2080;51.038;7.008;2023-05-07T07:28:44;74359.19;;;-142.53;61.12
4133;BME280;2080;51.038;7.008;2023-05-07T07:31:12;74349.47;;;-142.53;59.44
4133;BME280;2080;51.038;7.008;2023-05-07T07:33:38;74337.84;;;-142.53;58.68
4133;BME280;2080;51.038;7.008;2023-05-07T07:36:04;74320.38;;;-142.53;59.11
4133;BME280;2080;51.038;7.008;2023-05-07T07:38:30;74322.31;;;-142.53;57.46
4133;BME280;2080;51.038;7.008;2023-05-07T07:41:03;74293.19;;;-142.53;58.49
4133;BME280;2080;51.038;7.008;2023-05-07T07:43:31;74277.66;;;-142.53;55.86
4133;BME280;2080;51.038;7.008;2023-05-07T07:45:56;74281.53;;;-142.53;56.86
4133;BME280;2080;51.038;7.008;2023-05-07T07:48:24;74254.38;;;-142.53;56.22
4133;BME280;2080;51.038;7.008;2023-05-07T07:50:50;74221.38;;;-142.53;54.72
4133;BME280;2080;51.038;7.008;2023-05-07T07:53:16;74203.91;;;-142.53;54.94
4133;BME280;2080;51.038;7.008;2023-05-07T07:55:41;74190.31;;;-142.53;54.85
4133;BME280;2080;51.038;7.008;2023-05-07T07:58:11;74159.25;;;-142.53;53.66
4133;BME280;2080;51.038;7.008;2023-05-07T08:00:37;74102.97;;;-142.53;54.30
4133;BME280;2080;51.038;7.008;2023-05-07T08:03:04;74083.56;;;-142.53;52.59
4133;BME280;2080;51.038;7.008;2023-05-07T08:05:36;74091.31;;;-142.53;52.59
4133;BME280;2080;51.038;7.008;2023-05-07T08:08:04;74087.44;;;-142.53;52.47
4133;BME280;2080;51.038;7.008;2023-05-07T08:10:33;74106.84;;;-142.53;51.89
4133;BME280;2080;51.038;7.008;2023-05-07T08:13:00;74116.56;;;-142.53;53.39
4133;BME280;2080;51.038;7.008;2023-05-07T08:15:28;74108.78;;;-142.53;52.52
4133;BME280;2080;51.038;7.008;2023-05-07T08:17:54;74110.72;;;-142.53;53.03
4133;BME280;2080;51.038;7.008;2023-05-07T08:20:23;74095.19;;;-142.53;52.94
4133;BME280;2080;51.038;7.008;2023-05-07T08:22:53;74064.16;;;-142.53;51.98
4133;BME280;2080;51.038;7.008;2023-05-07T08:25:19;74075.78;;;-142.53;51.65
4133;BME280;2080;51.038;7.008;2023-05-07T08:27:44;74095.19;;;-142.53;50.66
4133;BME280;2080;51.038;7.008;2023-05-07T08:30:15;74087.44;;;-142.53;51.45
4133;BME280;2080;51.038;7.008;2023-05-07T08:32:40;74066.09;;;-142.53;51.31
4133;BME280;2080;51.038;7.008;2023-05-07T08:35:06;74044.72;;;-142.53;51.37
4133;BME280;2080;51.038;7.008;2023-05-07T08:37:31;74064.16;;;-142.53;51.09
4133;BME280;2080;51.038;7.008;2023-05-07T08:39:57;74036.97;;;-142.53;51.09
4133;BME280;2080;51.038;7.008;2023-05-07T08:42:23;74013.69;;;-142.53;49.50
4133;BME280;2080;51.038;7.008;2023-05-07T08:44:50;73959.34;;;-142.53;49.97
4133;BME280;2080;51.038;7.008;2023-05-07T08:47:18;73955.44;;;-142.53;49.74
4133;BME280;2080;51.038;7.008;2023-05-07T08:49:46;73901.09;;;-142.53;49.11
4133;BME280;2080;51.038;7.008;2023-05-07T08:52:12;73864.22;;;-142.53;48.10
4133;BME280;2080;51.038;7.008;2023-05-07T08:54:42;73866.16;;;-142.53;47.33
4133;BME280;2080;51.038;7.008;2023-05-07T08:57:08;73846.75;;;-142.53;47.18
4133;BME280;2080;51.038;7.008;2023-05-07T08:59:34;73856.47;;;-142.53;45.84
4133;BME280;2080;51.038;7.008;2023-05-07T09:01:59;73866.16;;;-142.53;45.67
4133;BME280;2080;51.038;7.008;2023-05-07T09:04:25;73858.41;;;-142.53;46.71
4133;BME280;2080;51.038;7.008;2023-05-07T09:06:50;73842.88;;;-142.53;45.69
4133;BME280;2080;51.038;7.008;2023-05-07T09:09:17;73879.75;;;-142.53;45.67
4133;BME280;2080;51.038;7.008;2023-05-07T09:11:44;73912.75;;;-142.53;46.71
4133;BME280;2080;51.038;7.008;2023-05-07T09:14:09;73932.16;;;-142.53;47.24
4133;BME280;2080;51.038;7.008;2023-05-07T09:16:37;73957.38;;;-142.53;47.76
4133;BME280;2080;51.038;7.008;2023-05-07T09:19:02;73974.84;;;-142.53;47.51
4133;BME280;2080;51.038;7.008;2023-05-07T09:21:32;73986.50;;;-142.53;48.39
4133;BME280;2080;51.038;7.008;2023-05-07T09:23:57;74029.22;;;-142.53;47.00
4133;BME280;2080;51.038;7.008;2023-05-07T09:26:25;74000.09;;;-142.53;48.53
4133;BME280;2080;51.038;7.008;2023-05-07T09:28:53;73957.38;;;-142.53;49.02
4133;BME280;2080;51.038;7.008;2023-05-07T09:31:18;73916.63;;;-142.53;47.74
4133;BME280;2080;51.038;7.008;2023-05-07T09:33:44;73883.63;;;-142.53;46.32
4133;BME280;2080;51.038;7.008;2023-05-07T09:36:12;73837.06;;;-142.53;46.10
4133;BME280;2080;51.038;7.008;2023-05-07T09:38:37;73804.06;;;-142.53;45.10
4133;BME280;2080;51.038;7.008;2023-05-07T09:41:07;73773.00;;;-142.53;45.56
4133;BME280;2080;51.038;7.008;2023-05-07T09:43:37;73765.25;;;-142.53;46.50
4133;BME280;2080;51.038;7.008;2023-05-07T09:46:13;73730.31;;;-142.53;44.81
4133;BME280;2080;51.038;7.008;2023-05-07T09:48:41;73767.19;;;-142.53;45.10
4133;BME280;2080;51.038;7.008;2023-05-07T09:51:29;73792.41;;;-142.53;43.06
4133;BME280;2080;51.038;7.008;2023-05-07T09:53:56;73901.09;;;-142.53;43.30
4133;BME280;2080;51.038;7.008;2023-05-07T09:56:22;73870.03;;;-142.53;45.20
4133;BME280;2080;51.038;7.008;2023-05-07T09:58:52;73846.75;;;-142.53;46.26
4133;BME280;2080;51.038;7.008;2023-05-07T10:01:21;73868.09;;;-142.53;45.42
4133;BME280;2080;51.038;7.008;2023-05-07T10:03:48;73835.13;;;-142.53;46.03
4133;BME280;2080;51.038;7.008;2023-05-07T10:06:20;73821.53;;;-142.53;45.28
4133;BME280;2080;51.038;7.008;2023-05-07T10:08:48;73800.19;;;-142.53;44.35
4133;BME280;2080;51.038;7.008;2023-05-07T10:11:19;73850.63;;;-142.53;44.50
4133;BME280;2080;51.038;7.008;2023-05-07T10:13:46;73823.47;;;-142.53;45.22
4133;BME280;2080;51.038;7.008;2023-05-07T10:16:14;73786.59;;;-142.53;44.73
4133;BME280;2080;51.038;7.008;2023-05-07T10:18:42;73792.41;;;-142.53;44.13
4133;BME280;2080;51.038;7.008;2023-05-07T10:21:17;73786.59;;;-142.53;45.00
4133;BME280;2080;51.038;7.008;2023-05-07T10:23:49;73769.13;;;-142.53;44.13
4133;BME280;2080;51.038;7.008;2023-05-07T10:26:15;73749.72;;;-142.53;45.28
4133;BME280;2080;51.038;7.008;2023-05-07T10:28:47;73710.91;;;-142.53;44.21
4133;BME280;2080;51.038;7.008;2023-05-07T10:31:23;73693.44;;;-142.53;43.25
4133;BME280;2080;51.038;7.008;2023-05-07T10:33:56;73726.41;;;-142.53;41.89
4133;BME280;2080;51.038;7.008;2023-05-07T10:36:23;73664.31;;;-142.53;41.35
4133;BME280;2080;51.038;7.008;2023-05-07T10:38:57;73672.09;;;-142.53;42.23
4133;BME280;2080;51.038;7.008;2023-05-07T10:41:23;73759.41;;;-142.53;40.79
4133;BME280;2080;51.038;7.008;2023-05-07T10:43:48;73679.84;;;-142.53;41.53
4133;BME280;2080;51.038;7.008;2023-05-07T10:46:16;73627.44;;;-142.53;39.90
4133;BME280;2080;51.038;7.008;2023-05-07T10:51:30;73555.63;;;-142.53;39.77
4133;BME280;2080;51.038;7.008;2023-05-07T10:56:42;73499.34;;;-142.53;39.01
4133;BME280;2080;51.038;7.008;2023-05-07T11:04:18;73412.03;;;-142.53;37.40
4133;BME280;2080;51.038;7.008;2023-05-07T11:12:45;73629.38;;;-142.53;37.02
4133;BME280;2080;51.038;7.008;2023-05-07T11:15:03;73681.78;;;-142.53;36.58
4133;BME280;2080;51.038;7.008;2023-05-07T11:17:29;73571.16;;;-142.53;37.57
4133;BME280;2080;51.038;7.008;2023-05-07T11:20:00;73489.66;;;-142.53;36.66
4133;BME280;2080;51.038;7.008;2023-05-07T11:25:04;73392.63;;;-142.53;36.63
4133;BME280;2080;51.038;7.008;2023-05-07T11:27:33;73485.78;;;-142.53;35.72
4133;BME280;2080;51.038;7.008;2023-05-07T11:30:02;73478.00;;;-142.53;36.49
4133;BME280;2080;51.038;7.008;2023-05-07T11:32:31;73528.47;;;-142.53;36.49
4133;BME280;2080;51.038;7.008;2023-05-07T11:34:58;73489.66;;;-142.53;36.38
4133;BME280;2080;51.038;7.008;2023-05-07T11:37:30;73392.63;;;-142.53;36.38
4133;BME280;2080;51.038;7.008;2023-05-07T11:40:06;73380.97;;;-142.53;36.43
4133;BME280;2080;51.038;7.008;2023-05-07T11:42:36;73563.41;;;-142.53;36.71
4133;BME280;2080;51.038;7.008;2023-05-07T11:45:06;73609.97;;;-142.53;36.34
4133;BME280;2080;51.038;7.008;2023-05-07T11:47:33;73600.28;;;-142.53;36.82
4133;BME280;2080;51.038;7.008;2023-05-07T11:50:04;73443.06;;;-142.53;37.44
4133;BME280;2080;51.038;7.008;2023-05-07T11:52:33;73423.66;;;-142.53;37.07
4133;BME280;2080;51.038;7.008;2023-05-07T11:55:02;73349.94;;;-142.53;37.07
4133;BME280;2080;51.038;7.008;2023-05-07T11:57:32;73249.00;;;-142.53;36.76
4133;BME280;2080;51.038;7.008;2023-05-07T11:59:58;73221.84;;;-142.53;35.93
4133;BME280;2080;51.038;7.008;2023-05-07T12:02:25;73169.44;;;-142.53;34.78
4133;BME280;2080;51.038;7.008;2023-05-07T12:04:53;73016.16;;;-142.53;34.69
4133;BME280;2080;51.038;7.008;2023-05-07T12:07:19;72845.41;;;-142.53;34.88
4133;BME280;2080;51.038;7.008;2023-05-07T12:09:45;72849.28;;;-142.53;32.75
4133;BME280;2080;51.038;7.008;2023-05-07T12:12:13;72631.97;;;-142.53;33.61
4133;BME280;2080;51.038;7.008;2023-05-07T12:14:46;72550.50;;;-142.53;33.52
4133;BME280;2080;51.038;7.008;2023-05-07T12:17:13;72564.06;;;-142.53;32.77
4133;BME280;2080;51.038;7.008;2023-05-07T12:19:40;72467.06;;;-142.53;32.60
4133;BME280;2080;51.038;7.008;2023-05-07T12:22:10;72488.41;;;-142.53;32.99
4133;BME280;2080;51.038;7.008;2023-05-07T12:24:57;72649.44;;;-142.53;33.85
4133;BME280;2080;51.038;7.008;2023-05-07T12:27:25;72663.03;;;-142.53;33.36
4133;BME280;2080;51.038;7.008;2023-05-07T12:29:51;72323.50;;;-142.53;34.69
4133;BME280;2080;51.038;7.008;2023-05-07T12:32:17;72156.66;;;-142.53;34.28
4133;BME280;2080;51.038;7.008;2023-05-07T12:34:44;72090.69;;;-142.53;32.75
4133;BME280;2080;51.038;7.008;2023-05-07T12:37:10;72071.31;;;-142.53;33.60
4133;BME280;2080;51.038;7.008;2023-05-07T12:39:35;72373.94;;;-142.53;33.78
4133;BME280;2080;51.038;7.008;2023-05-07T12:42:01;72453.47;;;-142.53;34.47
4133;BME280;2080;51.038;7.008;2023-05-07T12:44:33;72434.06;;;-142.53;35.08
4133;BME280;2080;51.038;7.008;2023-05-07T12:47:04;72247.84;;;-142.53;33.82
4133;BME280;2080;51.038;7.008;2023-05-07T12:49:34;72282.75;;;-142.53;35.41
4133;BME280;2080;51.038;7.008;2023-05-07T12:52:05;72201.28;;;-142.53;35.18
4133;BME280;2080;51.038;7.008;2023-05-07T12:54:36;72150.84;;;-142.53;35.07
4133;BME280;2080;51.038;7.008;2023-05-07T12:57:04;72096.53;;;-142.53;35.04
4133;BME280;2080;51.038;7.008;2023-05-07T12:59:34;71993.72;;;-142.53;35.62
4133;BME280;2080;51.038;7.008;2023-05-07T13:02:00;71968.50;;;-142.53;35.40
4133;BME280;2080;51.038;7.008;2023-05-07T13:04:27;72049.97;;;-142.53;35.78
4133;BME280;2080;51.038;7.008;2023-05-07T13:06:53;71918.06;;;-142.53;36.54
4133;BME280;2080;51.038;7.008;2023-05-07T13:09:21;72038.31;;;-142.53;36.31
4133;BME280;2080;51.038;7.008;2023-05-07T13:11:48;72005.34;;;-142.53;35.78
4133;BME280;2080;51.038;7.008;2023-05-07T13:14:14;72034.44;;;-142.53;35.51